Clarks Summit, PA (18411)

3:56 PM EDT on May 27, 2016 (GMT -0400)
Clarks Summit | | Change Station

Elev 1404 ft 41.49 °N, 75.71 °W | Updated 13 seconds ago

Clear
Clear
83.8 °F
Feels Like 86 °F
N
2.9
Wind Variable Wind from North
Gusts 4.9 mph

Today
High -- | Low -- °F
--% Chance of Precip.
Yesterday
High -- | Low -- °F
Precip. -- in
Pressure 29.99 in
Visibility 9.0 miles
Clouds Clear
Heat Index 86 °F
Dew Point 65 °F
Humidity 53%
Rainfall 0.00 in
Snow Depth Not available.
5:33 AM 8:26 PM
Waning Gibbous, 68% visible
METAR KAVP 271954Z 26011KT 9SM CLR 31/17 A3002 RMK AO2 SLP155 T03110172
Pressure 29.99 in
Visibility 9.0 miles
Clouds Clear
Heat Index 86 °F
Dew Point 65 °F
Humidity 53%
Rainfall 0.00 in
Snow Depth Not available.
5:33 AM 8:26 PM
Waning Gibbous, 68% visible
METAR KAVP 271954Z 26011KT 9SM CLR 31/17 A3002 RMK AO2 SLP155 T03110172

10-Day Weather Forecast

Almanac

Astronomy

May. 27, 2016 Rise Set
Actual Time
Civil Twilight
Nautical Twilight
Astronomical Twilight
Moon
Length of Visible Light
Length of Day
Tomorrow will be .
, % of the Moon is Illuminated

Today's Extremes

State Highs State Lows

Community

WunderPhotos

Upload Photos

1,914,035 photos uploaded!

WunderBlog® & News

Nearby

Air Quality

  Air Quality AQ Index Pollutant
Not available.

Snow Depth

Station Depth Elevation

Earthquake Activity

City Distance Mag. Time & Date
Minimum magnitude displayed is 2.5.

Coastal Water Temperatures

Place Temperature

Stations

Nearby Weather Stations

Station Location Temp. Windchill Dew Point Humidity Wind Precip. Elev Updated Type
                   

Watches & Warnings

There are currently no watches in effect.